createdAt,value
2023-02-22T00:01:28.333Z,24.35
2023-02-22T00:03:54.608Z,21.73
2023-02-22T00:06:24.887Z,19.50
2023-02-22T00:08:52.514Z,20.52
2023-02-22T00:11:20.464Z,21.23
2023-02-22T00:13:47.371Z,21.05
2023-02-22T00:16:14.832Z,21.73
2023-02-22T00:18:41.101Z,22.05
2023-02-22T00:21:10.620Z,21.95
2023-02-22T00:23:39.807Z,20.88
2023-02-22T00:26:09.780Z,19.75
2023-02-22T00:28:39.428Z,19.08
2023-02-22T00:31:07.584Z,18.50
2023-02-22T00:33:33.887Z,19.42
2023-02-22T00:36:00.280Z,18.73
2023-02-22T00:38:26.594Z,19.48
2023-02-22T00:40:53.150Z,19.65
2023-02-22T00:43:19.388Z,19.52
2023-02-22T00:45:45.718Z,23.75
2023-02-22T00:48:12.012Z,23.05
2023-02-22T00:50:38.279Z,20.05
2023-02-22T00:53:05.120Z,20.15
2023-02-22T00:55:32.875Z,19.83
2023-02-22T00:57:59.931Z,19.27
2023-02-22T01:00:27.666Z,19.08
2023-02-22T01:02:55.874Z,19.00
2023-02-22T01:05:24.443Z,19.45
2023-02-22T01:07:50.951Z,19.10
2023-02-22T01:10:19.444Z,17.95
2023-02-22T01:12:46.548Z,17.80
2023-02-22T01:15:12.820Z,17.40
2023-02-22T01:17:39.957Z,20.33
2023-02-22T01:20:13.062Z,18.75
2023-02-22T01:22:40.203Z,19.00
2023-02-22T01:25:07.442Z,19.42
2023-02-22T01:27:34.925Z,17.77
2023-02-22T01:30:01.671Z,18.50
2023-02-22T01:32:27.922Z,17.95
2023-02-22T01:34:55.492Z,17.77
2023-02-22T01:37:21.741Z,18.67
2023-02-22T01:39:47.981Z,17.90
2023-02-22T01:42:14.220Z,17.33
2023-02-22T01:44:41.523Z,17.88
2023-02-22T01:47:11.246Z,17.17
2023-02-22T01:49:40.341Z,18.77
2023-02-22T01:52:08.788Z,18.50
2023-02-22T01:54:37.560Z,18.40
2023-02-22T01:57:08.066Z,19.23
2023-02-22T01:59:36.309Z,19.20
2023-02-22T02:02:04.528Z,19.65
2023-02-22T02:04:31.000Z,19.45
2023-02-22T02:07:00.064Z,19.75
2023-02-22T02:09:31.673Z,19.85
2023-02-22T02:12:00.661Z,20.73
2023-02-22T02:14:27.253Z,20.23
2023-02-22T02:16:53.858Z,20.83
2023-02-22T02:19:29.314Z,20.80
2023-02-22T02:22:04.522Z,21.33
2023-02-22T02:24:42.645Z,21.30
2023-02-22T02:27:09.264Z,20.83
2023-02-22T02:29:38.531Z,22.08
2023-02-22T02:32:15.622Z,22.65
2023-02-22T02:34:44.715Z,23.20
2023-02-22T02:37:12.594Z,22.70
2023-02-22T02:39:49.253Z,23.92
2023-02-22T02:42:18.391Z,22.92
2023-02-22T02:44:47.726Z,24.08
2023-02-22T02:47:14.354Z,23.02
2023-02-22T02:49:43.437Z,23.25
2023-02-22T02:52:10.152Z,23.08
2023-02-22T02:54:37.701Z,24.17
2023-02-22T02:57:04.415Z,23.73
2023-02-22T02:59:32.207Z,23.67
2023-02-22T03:02:01.312Z,24.20
2023-02-22T03:04:30.311Z,24.73
2023-02-22T03:07:11.598Z,25.30
2023-02-22T03:09:37.866Z,23.95
2023-02-22T03:12:33.656Z,24.63
2023-02-22T03:15:12.673Z,27.15
2023-02-22T03:17:53.981Z,23.20
2023-02-22T03:20:20.238Z,24.77
2023-02-22T03:22:50.876Z,25.95
2023-02-22T03:27:46.435Z,24.95
2023-02-22T03:30:17.418Z,26.05
2023-02-22T03:32:46.182Z,26.25
2023-02-22T03:35:16.398Z,27.88
2023-02-22T03:37:45.327Z,27.83
2023-02-22T03:40:14.864Z,25.90
2023-02-22T03:42:45.572Z,24.98
2023-02-22T03:47:43.265Z,24.45
2023-02-22T03:50:15.170Z,25.02
2023-02-22T03:52:43.097Z,25.42
2023-02-22T03:55:11.242Z,28.17
2023-02-22T03:57:39.111Z,27.90
2023-02-22T04:00:07.176Z,27.40
2023-02-22T04:02:34.886Z,27.83
2023-02-22T04:05:01.180Z,27.50
2023-02-22T04:07:27.521Z,26.98
2023-02-22T04:09:53.750Z,26.50
2023-02-22T04:12:20.054Z,26.60
2023-02-22T04:14:46.345Z,26.73
2023-02-22T04:17:12.596Z,26.17
2023-02-22T04:19:38.864Z,27.15
2023-02-22T04:22:05.144Z,27.38
2023-02-22T04:24:31.479Z,27.55
2023-02-22T04:26:57.776Z,27.08
2023-02-22T04:29:24.054Z,28.02
2023-02-22T04:31:50.455Z,26.58
2023-02-22T04:34:16.714Z,26.98
2023-02-22T04:36:44.591Z,28.55
2023-02-22T04:39:10.975Z,26.33
2023-02-22T04:41:37.275Z,26.60
2023-02-22T04:44:03.616Z,27.63
2023-02-22T04:46:31.377Z,26.90
2023-02-22T04:48:57.719Z,27.13
2023-02-22T04:51:24.261Z,26.55
2023-02-22T04:53:50.552Z,27.35
2023-02-22T04:56:17.520Z,27.42
2023-02-22T04:58:43.932Z,27.95
2023-02-22T05:01:10.275Z,25.63
2023-02-22T05:03:39.448Z,27.30
2023-02-22T05:06:06.007Z,27.73
2023-02-22T05:08:32.260Z,27.52
2023-02-22T05:10:58.605Z,27.95
2023-02-22T05:13:24.868Z,27.50
2023-02-22T05:15:51.125Z,29.60
2023-02-22T05:18:17.465Z,28.17
2023-02-22T05:20:43.745Z,27.40
2023-02-22T05:23:10.038Z,28.58
2023-02-22T05:25:36.333Z,29.05
2023-02-22T05:28:03.938Z,29.92
2023-02-22T05:30:32.500Z,29.73
2023-02-22T05:32:59.516Z,31.73
2023-02-22T05:35:26.310Z,31.20
2023-02-22T05:37:52.794Z,34.63
2023-02-22T05:40:20.807Z,33.85
2023-02-22T05:42:48.994Z,33.70
2023-02-22T05:45:16.704Z,31.63
2023-02-22T05:47:43.004Z,34.22
2023-02-22T05:50:09.594Z,34.13
2023-02-22T05:52:35.944Z,35.97
2023-02-22T05:55:02.257Z,37.25
2023-02-22T05:57:28.603Z,35.72
2023-02-22T05:59:54.842Z,37.17
2023-02-22T06:02:21.137Z,33.42
2023-02-22T06:04:47.397Z,33.70
2023-02-22T06:07:14.377Z,34.85
2023-02-22T06:09:40.805Z,33.35
2023-02-22T06:12:07.400Z,32.20
2023-02-22T06:14:33.667Z,32.42
2023-02-22T06:17:00.903Z,32.08
2023-02-22T06:19:27.964Z,33.90
2023-02-22T06:21:55.500Z,34.83
2023-02-22T06:24:22.697Z,33.08
2023-02-22T06:26:58.886Z,33.30
2023-02-22T06:29:25.956Z,35.55
2023-02-22T06:31:52.422Z,32.80
2023-02-22T06:34:19.465Z,35.17
2023-02-22T06:36:47.923Z,36.85
2023-02-22T06:39:18.805Z,36.30
2023-02-22T06:41:45.911Z,35.45
2023-02-22T06:44:13.127Z,32.67
2023-02-22T06:46:39.651Z,32.13
2023-02-22T06:49:06.008Z,34.53
2023-02-22T06:51:36.956Z,31.27
2023-02-22T06:54:04.439Z,30.77
2023-02-22T06:56:30.738Z,31.20
2023-02-22T06:58:56.992Z,31.17
2023-02-22T07:01:23.268Z,32.83
2023-02-22T07:03:50.077Z,32.35
2023-02-22T07:06:16.364Z,32.55
2023-02-22T07:08:42.681Z,30.90
2023-02-22T07:11:08.915Z,30.63
2023-02-22T07:13:35.229Z,33.22
2023-02-22T07:16:01.551Z,30.27
2023-02-22T07:18:29.407Z,35.10
2023-02-22T07:20:58.520Z,33.75
2023-02-22T07:23:24.815Z,35.22
2023-02-22T07:25:51.206Z,35.33
2023-02-22T07:28:17.469Z,32.65
2023-02-22T07:30:43.891Z,32.75
2023-02-22T07:33:11.821Z,33.75
2023-02-22T07:35:43.026Z,32.28
2023-02-22T07:38:09.387Z,31.63
2023-02-22T07:40:36.449Z,35.20
2023-02-22T07:43:06.766Z,35.83
2023-02-22T07:48:00.678Z,34.63
2023-02-22T07:50:32.739Z,34.90
2023-02-22T07:53:00.435Z,37.33
2023-02-22T07:55:27.840Z,37.90
2023-02-22T07:57:55.372Z,34.08
2023-02-22T08:00:40.447Z,31.75
2023-02-22T08:03:11.391Z,30.88
2023-02-22T08:05:38.423Z,30.85
2023-02-22T08:08:06.020Z,29.55
2023-02-22T08:10:32.939Z,30.10
2023-02-22T08:12:59.328Z,29.48
2023-02-22T08:15:29.821Z,28.02
2023-02-22T08:17:57.148Z,29.88
2023-02-22T08:20:23.534Z,29.58
2023-02-22T08:22:49.932Z,28.27
2023-02-22T08:25:17.021Z,28.23
2023-02-22T08:27:43.835Z,27.20
2023-02-22T08:30:17.810Z,27.38
2023-02-22T08:32:45.315Z,27.70
2023-02-22T08:35:13.601Z,26.35
2023-02-22T08:37:47.457Z,25.55
2023-02-22T08:40:15.029Z,27.05
2023-02-22T08:42:41.409Z,25.02
2023-02-22T08:45:08.017Z,27.80
2023-02-22T08:47:34.322Z,26.65
2023-02-22T08:50:00.751Z,27.35
2023-02-22T08:52:27.084Z,26.73
2023-02-22T08:54:53.337Z,26.30
2023-02-22T08:57:21.665Z,25.80
2023-02-22T08:59:48.255Z,26.95
2023-02-22T09:02:20.367Z,27.52
2023-02-22T09:04:47.962Z,28.50
2023-02-22T09:07:15.209Z,27.25
2023-02-22T09:09:44.600Z,27.38
2023-02-22T09:12:11.128Z,27.17
2023-02-22T09:14:37.503Z,26.98
2023-02-22T09:17:05.947Z,26.98
2023-02-22T09:19:32.294Z,27.42
2023-02-22T09:22:00.011Z,26.30
2023-02-22T09:24:27.048Z,25.50
2023-02-22T09:26:56.393Z,28.00
2023-02-22T09:29:26.609Z,26.83
2023-02-22T09:31:54.597Z,24.67
2023-02-22T09:34:22.613Z,27.33
2023-02-22T09:36:49.716Z,28.02
2023-02-22T09:39:17.242Z,27.65
2023-02-22T09:42:06.858Z,26.40
2023-02-22T09:44:53.665Z,27.15
2023-02-22T09:47:32.192Z,25.30
2023-02-22T09:50:02.360Z,24.20
2023-02-22T09:52:31.252Z,25.45
2023-02-22T09:55:05.497Z,24.25
2023-02-22T09:57:35.052Z,24.48
2023-02-22T10:00:16.436Z,24.55
2023-02-22T10:02:52.374Z,22.83
2023-02-22T10:05:27.935Z,22.85
2023-02-22T10:07:58.032Z,21.90
2023-02-22T10:10:25.327Z,21.98
2023-02-22T10:12:59.167Z,22.60
2023-02-22T10:15:45.679Z,22.60
2023-02-22T10:18:30.596Z,22.10
2023-02-22T10:21:02.452Z,21.85
2023-02-22T10:23:36.515Z,21.73
2023-02-22T10:26:14.810Z,21.75
2023-02-22T10:28:43.951Z,20.48
2023-02-22T10:31:16.690Z,22.98
2023-02-22T10:33:46.739Z,21.48
2023-02-22T10:36:18.724Z,21.90
2023-02-22T10:38:54.000Z,22.08
2023-02-22T10:41:27.088Z,20.17
2023-02-22T10:43:53.413Z,23.08
2023-02-22T10:46:21.186Z,23.08
2023-02-22T10:48:48.708Z,23.73
2023-02-22T10:51:15.067Z,22.83
2023-02-22T10:53:41.451Z,21.52
2023-02-22T10:56:08.009Z,21.55
2023-02-22T10:58:52.016Z,23.42
2023-02-22T11:01:23.620Z,22.75
2023-02-22T11:04:00.787Z,21.25
2023-02-22T11:06:27.483Z,23.08
2023-02-22T11:09:14.112Z,23.08
2023-02-22T11:11:41.840Z,21.48
2023-02-22T11:14:10.707Z,22.40
2023-02-22T11:17:03.350Z,21.90
2023-02-22T11:19:30.890Z,22.70
2023-02-22T11:21:59.589Z,22.25
2023-02-22T11:24:30.370Z,23.45
2023-02-22T11:27:01.473Z,24.00
2023-02-22T11:29:37.550Z,23.40
2023-02-22T11:32:22.131Z,23.08
2023-02-22T11:35:03.565Z,24.58
2023-02-22T11:37:39.040Z,24.10
2023-02-22T11:40:05.310Z,23.05
2023-02-22T11:42:31.573Z,24.30
2023-02-22T11:45:11.559Z,24.48
2023-02-22T11:47:54.498Z,22.92
2023-02-22T11:50:28.406Z,23.55
2023-02-22T11:53:22.072Z,24.63
2023-02-22T11:56:07.903Z,23.70
2023-02-22T11:58:54.119Z,24.05
2023-02-22T12:01:29.843Z,23.92
2023-02-22T12:03:58.309Z,24.13
2023-02-22T12:06:27.696Z,25.13
2023-02-22T12:09:14.062Z,23.52
2023-02-22T12:12:03.554Z,23.58
2023-02-22T12:14:41.977Z,24.38
2023-02-22T12:17:26.938Z,25.77
2023-02-22T12:20:10.112Z,24.13
2023-02-22T12:22:39.263Z,24.38
2023-02-22T12:25:12.132Z,24.67
2023-02-22T12:27:45.046Z,25.33
2023-02-22T12:30:34.006Z,23.92
2023-02-22T12:33:04.770Z,23.92
2023-02-22T12:35:37.583Z,24.50
2023-02-22T12:38:09.978Z,23.33
2023-02-22T12:41:15.020Z,23.73
2023-02-22T12:43:44.917Z,21.25
2023-02-22T12:46:37.210Z,22.97
2023-02-22T12:49:23.738Z,23.27
2023-02-22T12:51:57.294Z,22.83
2023-02-22T12:54:36.626Z,22.08
2023-02-22T12:57:12.059Z,22.50
2023-02-22T12:59:44.856Z,23.67
2023-02-22T13:02:23.368Z,23.00
2023-02-22T13:04:49.712Z,21.40
2023-02-22T13:07:15.994Z,21.73
2023-02-22T13:09:42.303Z,22.02
2023-02-22T13:12:37.604Z,23.10
2023-02-22T13:15:10.956Z,21.88
2023-02-22T13:17:40.359Z,21.83
2023-02-22T13:20:23.280Z,23.27
2023-02-22T13:22:52.208Z,21.70
2023-02-22T13:25:18.611Z,22.88
2023-02-22T13:28:22.994Z,20.38
2023-02-22T13:31:08.917Z,19.27
2023-02-22T13:33:46.618Z,19.48
2023-02-22T13:36:15.875Z,19.08
2023-02-22T13:38:57.521Z,18.65
2023-02-22T13:41:38.905Z,20.02
2023-02-22T13:44:23.681Z,19.38
2023-02-22T13:47:08.868Z,19.92
2023-02-22T13:49:38.695Z,19.90
2023-02-22T13:52:09.331Z,19.80
2023-02-22T13:57:03.030Z,19.60
2023-02-22T13:59:37.146Z,19.75
2023-02-22T14:02:04.693Z,20.00
2023-02-22T14:04:30.975Z,19.98
2023-02-22T14:07:00.941Z,19.73
2023-02-22T14:10:02.515Z,19.70
2023-02-22T14:12:34.904Z,19.52
2023-02-22T14:15:18.734Z,19.52
2023-02-22T14:17:56.997Z,19.73
2023-02-22T14:20:31.415Z,20.00
2023-02-22T14:23:17.750Z,18.52
2023-02-22T14:25:44.635Z,20.02
2023-02-22T14:28:31.328Z,19.15
2023-02-22T14:31:29.322Z,18.05
2023-02-22T14:33:56.204Z,19.25
2023-02-22T14:36:34.328Z,19.05
2023-02-22T14:39:10.629Z,17.70
2023-02-22T14:41:37.893Z,18.27
2023-02-22T14:44:05.472Z,17.63
2023-02-22T14:46:34.646Z,17.83
2023-02-22T14:49:04.133Z,18.70
2023-02-22T14:51:53.469Z,17.70
2023-02-22T14:54:28.860Z,17.38
2023-02-22T14:56:59.773Z,18.65
2023-02-22T14:59:27.168Z,16.77
2023-02-22T15:02:11.823Z,17.88
2023-02-22T15:04:38.858Z,17.67
2023-02-22T15:07:18.435Z,17.48
2023-02-22T15:09:48.236Z,16.60
2023-02-22T15:12:23.093Z,16.90
2023-02-22T15:14:49.710Z,17.27
2023-02-22T15:17:21.378Z,17.65
2023-02-22T15:19:48.776Z,17.25
2023-02-22T15:22:19.804Z,17.02
2023-02-22T15:24:48.380Z,17.25
2023-02-22T15:27:15.840Z,18.10
2023-02-22T15:29:46.344Z,17.58
2023-02-22T15:32:49.843Z,17.45
2023-02-22T15:35:26.597Z,17.05
2023-02-22T15:38:03.532Z,17.98
2023-02-22T15:40:33.268Z,17.88
2023-02-22T15:43:00.987Z,17.63
2023-02-22T15:45:28.291Z,17.48
2023-02-22T15:47:55.216Z,17.55
2023-02-22T15:50:25.499Z,17.85
2023-02-22T15:52:57.815Z,17.20
2023-02-22T15:55:40.855Z,17.73
2023-02-22T15:58:11.799Z,18.77
2023-02-22T16:00:40.467Z,17.55
2023-02-22T16:03:11.148Z,18.98
2023-02-22T16:08:04.047Z,17.92
2023-02-22T16:10:33.344Z,17.42
2023-02-22T16:13:31.648Z,17.90
2023-02-22T16:16:02.040Z,19.20
2023-02-22T16:18:30.168Z,19.48
2023-02-22T16:21:00.642Z,18.48
2023-02-22T16:23:27.650Z,18.58
2023-02-22T16:26:07.717Z,20.85
2023-02-22T16:28:35.649Z,19.70
2023-02-22T16:31:02.585Z,19.95
2023-02-22T16:33:33.850Z,20.80
2023-02-22T16:36:03.780Z,19.42
2023-02-22T16:38:33.940Z,19.27
2023-02-22T16:41:00.252Z,20.80
2023-02-22T16:43:29.432Z,20.45
2023-02-22T16:45:55.866Z,21.35
2023-02-22T16:48:23.821Z,22.33
2023-02-22T16:50:51.514Z,20.55
2023-02-22T16:53:19.979Z,21.50
2023-02-22T16:55:50.403Z,19.80
2023-02-22T16:58:18.852Z,22.70
2023-02-22T17:00:45.454Z,21.73
2023-02-22T17:03:14.898Z,22.05
2023-02-22T17:05:41.221Z,22.30
2023-02-22T17:08:07.533Z,21.77
2023-02-22T17:10:34.064Z,23.45
2023-02-22T17:13:07.229Z,24.35
2023-02-22T17:15:39.319Z,24.73
2023-02-22T17:18:14.035Z,23.40
2023-02-22T17:20:40.358Z,24.20
2023-02-22T17:23:10.483Z,25.15
2023-02-22T17:25:38.634Z,25.02
2023-02-22T17:28:05.477Z,25.20
2023-02-22T17:30:32.808Z,26.30
2023-02-22T17:33:03.677Z,25.88
2023-02-22T17:35:36.578Z,27.40
2023-02-22T17:38:06.636Z,27.83
2023-02-22T17:40:33.824Z,31.10
2023-02-22T17:43:01.799Z,31.08
2023-02-22T17:45:28.340Z,33.20
2023-02-22T17:47:55.042Z,34.67
2023-02-22T17:50:22.332Z,35.78
2023-02-22T17:52:51.476Z,35.05
2023-02-22T17:55:18.713Z,35.45
2023-02-22T17:57:45.691Z,35.35
2023-02-22T18:00:15.591Z,35.85
2023-02-22T18:02:42.599Z,38.35
2023-02-22T18:05:10.102Z,37.35
2023-02-22T18:07:36.495Z,38.10
2023-02-22T18:10:05.312Z,39.03
2023-02-22T18:12:32.151Z,39.63
2023-02-22T18:14:59.205Z,39.25
2023-02-22T18:17:25.481Z,40.03
2023-02-22T18:19:51.908Z,41.65
2023-02-22T18:22:18.136Z,40.75
2023-02-22T18:24:44.428Z,42.63
2023-02-22T18:27:11.815Z,40.95
2023-02-22T18:29:38.114Z,40.45
2023-02-22T18:32:04.481Z,40.83
2023-02-22T18:34:30.715Z,42.80
2023-02-22T18:36:57.008Z,44.50
2023-02-22T18:39:23.267Z,45.08
2023-02-22T18:41:49.598Z,47.55
2023-02-22T18:44:16.184Z,50.10
2023-02-22T18:46:43.483Z,49.53
2023-02-22T18:49:13.657Z,48.22
2023-02-22T18:51:43.397Z,45.50
2023-02-22T18:54:11.349Z,46.60
2023-02-22T18:56:39.632Z,49.55
2023-02-22T18:59:07.852Z,51.22
2023-02-22T19:01:38.684Z,51.25
2023-02-22T19:04:05.785Z,49.47
2023-02-22T19:06:34.934Z,52.33
2023-02-22T19:09:01.764Z,51.17
2023-02-22T19:11:28.138Z,54.25
2023-02-22T19:13:57.442Z,53.60
2023-02-22T19:16:25.241Z,52.65
2023-02-22T19:18:52.548Z,52.83
2023-02-22T19:21:19.995Z,52.10
2023-02-22T19:23:47.828Z,53.42
2023-02-22T19:26:24.632Z,52.85
2023-02-22T19:28:52.170Z,53.65
2023-02-22T19:31:22.006Z,52.78
2023-02-22T19:33:52.413Z,51.75
2023-02-22T19:36:19.625Z,51.55
2023-02-22T19:38:46.166Z,50.20
2023-02-22T19:41:15.681Z,51.60
2023-02-22T19:43:42.201Z,52.73
2023-02-22T19:46:08.478Z,55.28
2023-02-22T19:48:34.732Z,54.97
2023-02-22T19:51:06.377Z,52.65
2023-02-22T19:53:36.637Z,54.00
2023-02-22T19:56:10.266Z,55.13
2023-02-22T19:58:37.515Z,48.90
2023-02-22T20:01:11.437Z,50.45
2023-02-22T20:03:38.629Z,49.13
2023-02-22T20:06:08.985Z,46.53
2023-02-22T20:08:36.616Z,47.95
2023-02-22T20:11:03.132Z,50.92
2023-02-22T20:13:29.557Z,49.80
2023-02-22T20:15:55.826Z,47.75
2023-02-22T20:18:22.887Z,46.72
2023-02-22T20:20:49.229Z,46.90
2023-02-22T20:23:15.549Z,47.08
2023-02-22T20:25:42.408Z,47.50
2023-02-22T20:28:10.571Z,45.63
2023-02-22T20:30:37.404Z,46.55
2023-02-22T20:33:05.038Z,45.67
2023-02-22T20:35:33.922Z,47.03
2023-02-22T20:38:01.324Z,48.10
2023-02-22T20:40:27.550Z,46.90
2023-02-22T20:42:53.792Z,46.05
2023-02-22T20:45:20.164Z,45.50
2023-02-22T20:47:47.679Z,47.38
2023-02-22T20:50:14.090Z,47.08
2023-02-22T20:52:40.455Z,48.22
2023-02-22T20:55:11.370Z,50.55
2023-02-22T20:57:37.955Z,48.33
2023-02-22T21:00:04.799Z,48.55
2023-02-22T21:02:31.071Z,46.60
2023-02-22T21:04:58.047Z,46.22
2023-02-22T21:07:24.503Z,47.72
2023-02-22T21:09:50.835Z,46.70
2023-02-22T21:12:17.131Z,47.75
2023-02-22T21:14:46.189Z,47.17
2023-02-22T21:17:12.506Z,49.20
2023-02-22T21:19:38.849Z,47.25
2023-02-22T21:22:08.100Z,47.50
2023-02-22T21:24:36.124Z,47.13
2023-02-22T21:27:02.665Z,47.47
2023-02-22T21:29:29.330Z,47.92
2023-02-22T21:31:56.047Z,47.13
2023-02-22T21:34:22.772Z,46.92
2023-02-22T21:36:50.455Z,46.72
2023-02-22T21:39:19.516Z,46.72
2023-02-22T21:41:47.440Z,47.53
2023-02-22T21:44:13.753Z,47.92
2023-02-22T21:46:40.098Z,47.25
2023-02-22T21:49:06.686Z,47.63
2023-02-22T21:51:33.490Z,47.13
2023-02-22T21:54:01.004Z,45.78
2023-02-22T21:56:27.973Z,46.95
2023-02-22T21:59:02.844Z,44.47
2023-02-22T22:01:30.157Z,44.03
2023-02-22T22:03:59.559Z,45.78
2023-02-22T22:06:27.866Z,44.38
2023-02-22T22:08:54.604Z,45.00
2023-02-22T22:11:21.257Z,43.67
2023-02-22T22:13:49.132Z,41.70
2023-02-22T22:16:16.644Z,41.08
2023-02-22T22:18:43.717Z,42.22
2023-02-22T22:21:11.271Z,42.65
2023-02-22T22:23:39.021Z,42.40
2023-02-22T22:26:10.801Z,41.85
2023-02-22T22:28:40.841Z,41.80
2023-02-22T22:31:07.828Z,43.90
2023-02-22T22:33:34.751Z,43.60
2023-02-22T22:36:01.030Z,43.35
2023-02-22T22:38:28.953Z,43.40
2023-02-22T22:40:59.039Z,41.70
2023-02-22T22:43:25.331Z,42.60
2023-02-22T22:45:51.592Z,43.47
2023-02-22T22:48:17.831Z,42.50
2023-02-22T22:50:46.395Z,44.28
2023-02-22T22:53:12.916Z,46.20
2023-02-22T22:55:40.805Z,44.47
2023-02-22T22:58:09.968Z,46.35
2023-02-22T23:00:37.678Z,44.75
2023-02-22T23:03:05.629Z,44.38
2023-02-22T23:05:36.964Z,46.00
2023-02-22T23:08:04.647Z,46.97
2023-02-22T23:10:31.748Z,46.28
2023-02-22T23:12:58.050Z,46.95
2023-02-22T23:15:25.192Z,46.35
2023-02-22T23:17:55.625Z,46.65
2023-02-22T23:20:23.092Z,46.75
2023-02-22T23:22:49.557Z,44.72
2023-02-22T23:25:15.968Z,47.58
2023-02-22T23:27:42.683Z,45.35
2023-02-22T23:30:14.820Z,44.05
2023-02-22T23:32:47.838Z,44.75
2023-02-22T23:35:14.945Z,44.85
2023-02-22T23:37:41.955Z,46.05
2023-02-22T23:40:20.528Z,44.70
2023-02-22T23:42:49.773Z,46.20
2023-02-22T23:45:22.781Z,44.25
2023-02-22T23:48:01.421Z,45.33
2023-02-22T23:50:29.072Z,45.05
2023-02-22T23:52:56.990Z,45.15
2023-02-22T23:55:24.233Z,47.92
2023-02-22T23:57:50.574Z,44.00
